Time;durP1;ratioP1;P1;durP2;ratioP2;P2;SDS_P1;SDS_P2;PMS_P1;PMS_P2;Temp;Humidity;BMP_temperature;BMP_pressure;BME280_temperature;BME280_humidity;BME280_pressure;Samples;Min_cycle;Max_cycle;Signal;HPM_P1;HPM_P2
2021/05/07 00:01:09;;;;;;;75.13;38.07;;;8.30;96.00;;;;;;8310674;28;20443;-73
2021/05/07 00:05:10;;;;;;;62.80;35.67;;;8.20;96.00;;;;;;8303829;28;20442;-74
2021/05/07 00:09:11;;;;;;;78.33;40.67;;;8.20;96.10;;;;;;8309906;28;20439;-74
2021/05/07 00:13:21;;;;;;;63.20;37.57;;;8.10;96.10;;;;;;8331899;28;20448;-74
2021/05/07 00:17:22;;;;;;;69.53;40.77;;;8.10;96.00;;;;;;8306376;28;20553;-74
2021/05/07 00:21:24;;;;;;;75.87;44.00;;;8.00;95.90;;;;;;8314055;28;20523;-74
2021/05/07 00:25:24;;;;;;;71.97;41.70;;;8.00;95.90;;;;;;8309775;28;20195;-73
2021/05/07 00:29:25;;;;;;;69.90;37.07;;;8.00;95.80;;;;;;8308637;28;20447;-74
2021/05/07 00:33:26;;;;;;;79.37;40.63;;;7.90;95.80;;;;;;8307604;28;20681;-74
2021/05/07 00:37:31;;;;;;;76.60;41.97;;;7.90;96.00;;;;;;8299552;28;20489;-73
2021/05/07 00:41:31;;;;;;;83.00;42.30;;;7.80;96.00;;;;;;8306314;28;20449;-74
2021/05/07 00:45:32;;;;;;;71.33;36.43;;;7.80;95.80;;;;;;8306055;28;20208;-74
2021/05/07 00:49:37;;;;;;;74.47;39.67;;;7.70;95.70;;;;;;8326906;28;20198;-74
2021/05/07 00:53:39;;;;;;;87.27;43.10;;;7.70;95.80;;;;;;8307815;28;20491;-73
2021/05/07 00:57:40;;;;;;;92.00;45.17;;;7.60;95.90;;;;;;8310331;28;20474;-73
2021/05/07 01:01:40;;;;;;;85.63;42.87;;;7.60;95.70;;;;;;8310210;28;20439;-73
2021/05/07 01:05:41;;;;;;;87.00;43.87;;;7.50;95.60;;;;;;8302357;28;20200;-74
2021/05/07 01:09:49;;;;;;;97.73;47.37;;;7.50;95.50;;;;;;8325999;28;20704;-74
2021/05/07 01:13:53;;;;;;;100.73;49.00;;;7.40;95.70;;;;;;8322403;28;20430;-74
2021/05/07 01:17:58;;;;;;;108.27;53.10;;;7.40;95.70;;;;;;8310133;28;20473;-73
2021/05/07 01:22:01;;;;;;;107.37;49.17;;;7.30;95.80;;;;;;8305229;28;20685;-73
2021/05/07 01:26:02;;;;;;;107.50;52.30;;;7.30;95.90;;;;;;8301761;28;20451;-74
2021/05/07 01:30:09;;;;;;;122.80;53.03;;;7.20;95.80;;;;;;8304898;28;20442;-74
2021/05/07 01:34:10;;;;;;;136.90;58.87;;;7.20;96.00;;;;;;8310535;28;20575;-74
2021/05/07 01:38:12;;;;;;;132.50;55.70;;;7.20;96.30;;;;;;8294681;28;20458;-74
2021/05/07 01:42:17;;;;;;;118.73;51.10;;;7.30;96.50;;;;;;8301321;28;20220;-74
2021/05/07 01:46:17;;;;;;;91.60;44.77;;;7.30;96.50;;;;;;8286299;28;20445;-73
2021/05/07 01:50:20;;;;;;;81.43;42.83;;;7.40;96.70;;;;;;8301751;28;20457;-74
2021/05/07 01:54:21;;;;;;;60.63;33.47;;;7.40;96.70;;;;;;8300985;28;20684;-74
2021/05/07 01:58:21;;;;;;;62.60;33.20;;;7.40;96.60;;;;;;8271984;28;20453;-75
2021/05/07 02:02:22;;;;;;;62.27;32.33;;;7.40;96.40;;;;;;8301836;28;20188;-74
2021/05/07 02:06:26;;;;;;;60.80;29.57;;;7.40;96.30;;;;;;8308374;28;20228;-74
2021/05/07 02:10:33;;;;;;;57.27;28.90;;;7.40;96.10;;;;;;8323556;28;20453;-73
2021/05/07 02:14:37;;;;;;;62.90;31.47;;;7.30;95.60;;;;;;8323509;28;20459;-73
2021/05/07 02:18:38;;;;;;;66.23;30.67;;;7.10;95.20;;;;;;8281569;28;20491;-73
2021/05/07 02:22:40;;;;;;;70.03;33.23;;;7.00;95.00;;;;;;8273711;28;20202;-73
2021/05/07 02:26:40;;;;;;;71.90;34.40;;;6.80;95.10;;;;;;8292980;28;20199;-74
2021/05/07 02:30:41;;;;;;;65.33;31.90;;;6.70;95.20;;;;;;8310231;28;20495;-73
2021/05/07 02:34:46;;;;;;;67.70;32.70;;;6.60;95.20;;;;;;8304056;28;20223;-73
2021/05/07 02:38:46;;;;;;;83.27;35.43;;;6.50;95.20;;;;;;8285801;28;20446;-73
2021/05/07 02:42:51;;;;;;;76.77;35.83;;;6.40;95.30;;;;;;8314951;28;20201;-73
2021/05/07 02:46:52;;;;;;;76.20;35.40;;;6.40;95.40;;;;;;8312781;28;20540;-73
2021/05/07 02:50:53;;;;;;;69.77;34.70;;;6.30;95.40;;;;;;8304900;28;20449;-73
2021/05/07 02:54:54;;;;;;;68.93;33.40;;;6.30;95.50;;;;;;8312809;28;20476;-74
2021/05/07 02:58:57;;;;;;;78.97;37.57;;;6.30;95.60;;;;;;8309652;28;20192;-73
2021/05/07 03:02:58;;;;;;;79.00;37.67;;;6.20;95.70;;;;;;8307261;28;20188;-73
2021/05/07 03:07:06;;;;;;;75.03;36.30;;;6.10;95.40;;;;;;8297673;28;20477;-74
2021/05/07 03:11:10;;;;;;;88.20;38.60;;;6.10;95.50;;;;;;8326929;28;20456;-73
2021/05/07 03:15:11;;;;;;;88.63;37.30;;;6.10;95.60;;;;;;8291809;28;20477;-73
2021/05/07 03:19:12;;;;;;;93.83;39.93;;;6.10;95.70;;;;;;8312271;28;20211;-75
2021/05/07 03:23:17;;;;;;;84.60;36.93;;;6.00;95.70;;;;;;8327166;28;20527;-73
2021/05/07 03:27:19;;;;;;;101.90;41.90;;;6.00;95.60;;;;;;8298195;28;20990;-74
2021/05/07 03:31:20;;;;;;;85.17;40.60;;;6.00;95.60;;;;;;8308814;28;20450;-74
2021/05/07 03:35:21;;;;;;;90.70;42.77;;;6.00;95.50;;;;;;8288048;28;20524;-74
2021/05/07 03:39:23;;;;;;;97.53;41.20;;;5.90;95.50;;;;;;8295500;28;20199;-74
2021/05/07 03:43:28;;;;;;;95.47;43.90;;;5.90;95.60;;;;;;8306405;28;20457;-73
2021/05/07 03:47:31;;;;;;;87.47;37.77;;;5.90;95.50;;;;;;8300919;28;20453;-74
2021/05/07 03:51:38;;;;;;;99.40;43.80;;;5.80;95.40;;;;;;8303506;28;20215;-75
2021/05/07 03:55:43;;;;;;;93.23;41.27;;;5.80;95.50;;;;;;8317002;28;20461;-74
2021/05/07 03:59:47;;;;;;;93.43;41.30;;;5.80;95.50;;;;;;8328622;28;20448;-74
2021/05/07 04:03:51;;;;;;;86.90;41.97;;;5.80;95.60;;;;;;8319813;28;20446;-74
2021/05/07 04:08:06;;;;;;;90.93;38.73;;;5.80;95.70;;;;;;8322930;28;20454;-74
2021/05/07 04:12:14;;;;;;;106.80;46.23;;;5.80;95.90;;;;;;8327900;28;20478;-74
2021/05/07 04:16:14;;;;;;;86.77;40.03;;;5.80;96.30;;;;;;8310952;28;20494;-74
2021/05/07 04:20:23;;;;;;;73.83;37.40;;;6.00;96.60;;;;;;8327271;28;20998;-75
2021/05/07 04:24:24;;;;;;;87.67;39.50;;;6.10;96.60;;;;;;8304145;28;20463;-74
2021/05/07 04:28:28;;;;;;;80.40;38.67;;;6.20;96.70;;;;;;8290897;28;20534;-74
2021/05/07 04:32:29;;;;;;;72.60;36.70;;;6.20;96.90;;;;;;8299840;28;20451;-73
2021/05/07 04:36:34;;;;;;;73.13;36.40;;;6.30;96.40;;;;;;8306750;28;20478;-74
2021/05/07 04:40:39;;;;;;;66.43;33.27;;;6.30;96.30;;;;;;8296020;28;20199;-74
2021/05/07 04:44:41;;;;;;;66.50;34.97;;;6.40;96.20;;;;;;8308931;28;20478;-75
2021/05/07 04:48:42;;;;;;;76.90;38.80;;;6.40;96.20;;;;;;8311602;28;20444;-76
2021/05/07 04:52:43;;;;;;;65.33;33.80;;;6.40;96.10;;;;;;8312105;28;20450;-75
2021/05/07 04:56:52;;;;;;;61.77;33.10;;;6.50;96.10;;;;;;8316732;28;20552;-75
2021/05/07 05:00:57;;;;;;;65.80;34.00;;;6.60;96.30;;;;;;8301827;28;20584;-73
2021/05/07 05:05:04;;;;;;;67.13;32.17;;;6.70;96.40;;;;;;8290547;28;20457;-75
2021/05/07 05:09:11;;;;;;;60.47;32.67;;;7.00;96.80;;;;;;8307681;28;20473;-73
2021/05/07 05:13:15;;;;;;;60.70;31.97;;;7.30;96.80;;;;;;8302934;28;20532;-74
2021/05/07 05:17:16;;;;;;;48.43;25.77;;;7.50;96.50;;;;;;8291569;28;20471;-74
2021/05/07 05:21:19;;;;;;;48.27;26.77;;;7.60;96.40;;;;;;8307552;28;20517;-74
2021/05/07 05:25:21;;;;;;;55.93;29.97;;;7.70;96.00;;;;;;8284455;28;20193;-73
2021/05/07 05:29:22;;;;;;;49.67;27.20;;;7.70;95.50;;;;;;8308184;28;20506;-74
2021/05/07 05:33:23;;;;;;;54.47;25.03;;;7.70;95.00;;;;;;8304258;28;20967;-73
2021/05/07 05:37:25;;;;;;;49.67;28.07;;;7.60;94.40;;;;;;8308150;28;21023;-74
2021/05/07 05:41:29;;;;;;;47.10;26.37;;;7.60;94.50;;;;;;8285674;28;20203;-74
2021/05/07 05:45:31;;;;;;;54.43;27.53;;;7.80;95.20;;;;;;8294079;28;20459;-73
2021/05/07 05:49:32;;;;;;;40.33;23.30;;;8.10;94.80;;;;;;8286980;28;21039;-73
2021/05/07 05:53:34;;;;;;;48.87;26.47;;;8.20;94.20;;;;;;8302293;28;20523;-74
2021/05/07 05:57:44;;;;;;;41.13;23.40;;;8.30;93.80;;;;;;8304304;28;20316;-74
2021/05/07 06:01:49;;;;;;;47.17;24.37;;;8.30;93.60;;;;;;8299476;28;21029;-75
2021/05/07 06:05:51;;;;;;;40.10;22.73;;;8.40;93.50;;;;;;8317602;28;20538;-74
2021/05/07 06:09:52;;;;;;;38.47;20.77;;;8.70;93.50;;;;;;8297425;28;21445;-74
2021/05/07 06:13:56;;;;;;;40.27;22.97;;;9.10;93.80;;;;;;8297987;28;21286;-75
2021/05/07 06:18:03;;;;;;;38.37;22.40;;;9.40;93.50;;;;;;8292962;28;20230;-75
2021/05/07 06:22:04;;;;;;;43.57;24.40;;;9.60;92.70;;;;;;8293196;28;20455;-75
2021/05/07 06:26:07;;;;;;;35.13;19.60;;;9.60;92.50;;;;;;8298473;28;20461;-74
2021/05/07 06:30:13;;;;;;;35.00;18.90;;;9.70;92.90;;;;;;8283010;28;20492;-74
2021/05/07 06:34:17;;;;;;;45.33;27.00;;;9.90;91.50;;;;;;8295009;28;20458;-75
2021/05/07 06:38:21;;;;;;;30.83;18.90;;;10.10;91.70;;;;;;8287942;28;20465;-74
2021/05/07 06:42:26;;;;;;;25.50;17.27;;;10.80;90.60;;;;;;8279223;28;20467;-74
2021/05/07 06:46:27;;;;;;;30.93;17.13;;;11.00;88.30;;;;;;8297541;28;20505;-74
2021/05/07 06:50:28;;;;;;;31.20;18.80;;;11.20;87.40;;;;;;8296329;28;20458;-74
2021/05/07 06:54:29;;;;;;;24.60;16.83;;;11.20;86.80;;;;;;8279113;28;20473;-74
2021/05/07 06:58:31;;;;;;;23.17;14.90;;;11.10;86.50;;;;;;8295699;28;20532;-74
2021/05/07 07:02:31;;;;;;;29.27;15.93;;;10.90;85.00;;;;;;8293757;28;20265;-74
2021/05/07 07:06:34;;;;;;;42.50;18.70;;;10.60;84.70;;;;;;8304521;28;20910;-75
2021/05/07 07:10:35;;;;;;;29.47;19.37;;;10.30;86.80;;;;;;8277589;28;20711;-75
2021/05/07 07:14:38;;;;;;;33.73;21.20;;;9.80;89.20;;;;;;8289419;28;20471;-76
2021/05/07 07:18:40;;;;;;;47.93;22.20;;;9.20;91.00;;;;;;8310565;28;20465;-75
2021/05/07 07:22:40;;;;;;;40.97;22.27;;;8.70;92.20;;;;;;8279571;28;20462;-75
2021/05/07 07:26:45;;;;;;;35.27;21.60;;;8.50;93.30;;;;;;8305281;28;20456;-76
2021/05/07 07:30:46;;;;;;;27.17;17.53;;;8.40;93.90;;;;;;8304324;28;20694;-76
2021/05/07 07:34:49;;;;;;;30.77;16.10;;;8.40;94.30;;;;;;8301237;28;21052;-76
2021/05/07 07:38:52;;;;;;;19.83;12.83;;;8.60;94.20;;;;;;8301511;28;20452;-76
2021/05/07 07:42:56;;;;;;;21.00;12.60;;;9.00;94.00;;;;;;8322385;28;20465;-76
2021/05/07 07:46:58;;;;;;;17.03;9.97;;;9.40;93.20;;;;;;8295042;28;20565;-76
2021/05/07 07:50:59;;;;;;;15.33;9.60;;;9.70;92.80;;;;;;8291121;28;20479;-75
2021/05/07 07:55:00;;;;;;;14.20;9.23;;;11.00;92.10;;;;;;8302110;28;20764;-76
2021/05/07 07:59:02;;;;;;;11.50;8.83;;;11.90;87.40;;;;;;8294559;28;20446;-75
2021/05/07 08:03:03;;;;;;;13.77;9.87;;;11.80;86.40;;;;;;8299118;28;20446;-76
2021/05/07 08:07:03;;;;;;;16.97;10.23;;;11.40;86.70;;;;;;8298342;28;20537;-75
2021/05/07 08:11:05;;;;;;;15.87;9.70;;;11.10;89.30;;;;;;8302268;28;20442;-76
2021/05/07 08:15:06;;;;;;;13.37;9.40;;;10.80;90.20;;;;;;8306194;28;20213;-74
2021/05/07 08:19:10;;;;;;;14.13;10.80;;;10.50;88.20;;;;;;8305120;28;20987;-76
2021/05/07 08:23:15;;;;;;;12.80;8.93;;;10.30;88.20;;;;;;8298710;28;20872;-75
2021/05/07 08:27:24;;;;;;;12.30;9.27;;;10.00;89.10;;;;;;8301023;28;20457;-75
2021/05/07 08:31:27;;;;;;;13.27;9.63;;;9.80;88.90;;;;;;8287807;28;20451;-76
2021/05/07 08:35:32;;;;;;;12.97;10.87;;;9.70;88.90;;;;;;8295701;28;20481;-76
2021/05/07 08:39:33;;;;;;;19.30;10.97;;;9.60;90.10;;;;;;8320949;28;20439;-76
2021/05/07 08:43:34;;;;;;;15.27;10.73;;;9.70;90.10;;;;;;8300899;28;20448;-75
2021/05/07 08:47:37;;;;;;;13.00;10.97;;;9.90;89.70;;;;;;8300182;28;20194;-74
2021/05/07 08:51:43;;;;;;;13.03;10.47;;;9.90;89.20;;;;;;8296412;28;20453;-75
2021/05/07 08:55:46;;;;;;;17.40;11.87;;;9.70;89.80;;;;;;8303364;28;20470;-75
2021/05/07 08:59:49;;;;;;;14.73;11.60;;;9.50;90.40;;;;;;8290390;28;20839;-75
2021/05/07 09:03:50;;;;;;;15.30;12.23;;;9.30;90.80;;;;;;8318339;28;20450;-75
2021/05/07 09:07:54;;;;;;;15.13;13.10;;;9.10;91.40;;;;;;8303561;28;20452;-75
2021/05/07 09:12:00;;;;;;;17.23;12.07;;;8.80;91.90;;;;;;8305241;28;20732;-74
2021/05/07 09:16:10;;;;;;;13.00;10.20;;;8.60;92.40;;;;;;8297734;28;20586;-75
2021/05/07 09:20:14;;;;;;;14.33;10.33;;;8.40;92.70;;;;;;8308780;28;20479;-76
2021/05/07 09:24:17;;;;;;;12.70;9.53;;;8.30;93.10;;;;;;8324161;28;20531;-75
2021/05/07 09:28:23;;;;;;;11.10;9.17;;;8.30;93.70;;;;;;8310217;28;20441;-76
2021/05/07 09:32:32;;;;;;;13.07;11.10;;;8.30;93.80;;;;;;8298442;28;20438;-76
2021/05/07 09:36:37;;;;;;;13.07;10.33;;;8.30;94.00;;;;;;8301522;28;20475;-75
2021/05/07 09:40:40;;;;;;;13.73;10.83;;;8.50;94.20;;;;;;8297632;28;20468;-76
2021/05/07 09:44:41;;;;;;;13.30;10.93;;;8.90;93.90;;;;;;8291515;28;20495;-75
2021/05/07 09:49:00;;;;;;;14.50;10.03;;;9.90;92.90;;;;;;8276805;28;20434;-76
2021/05/07 09:53:18;;;;;;;12.13;10.37;;;10.60;88.30;;;;;;8324271;28;20191;-75
2021/05/07 09:57:21;;;;;;;12.30;10.17;;;10.40;88.80;;;;;;8299742;28;20529;-74
2021/05/07 10:01:22;;;;;;;12.40;10.30;;;10.00;89.00;;;;;;8295687;28;20950;-73
2021/05/07 10:05:24;;;;;;;13.40;11.07;;;9.70;90.00;;;;;;8292718;28;20456;-74
2021/05/07 10:09:25;;;;;;;8.30;7.40;;;9.50;90.60;;;;;;8278579;28;20330;-74
2021/05/07 10:13:29;;;;;;;9.97;7.57;;;9.70;90.60;;;;;;8288162;28;20978;-75
2021/05/07 10:17:31;;;;;;;7.90;7.10;;;10.00;90.30;;;;;;8291953;28;21017;-74
2021/05/07 10:21:51;;;;;;;6.73;6.20;;;10.50;89.40;;;;;;8280799;28;20873;-75
2021/05/07 10:25:58;;;;;;;7.63;5.63;;;11.90;87.20;;;;;;8294892;28;20448;-74
2021/05/07 10:30:09;;;;;;;5.70;5.20;;;12.80;80.70;;;;;;8289947;28;20541;-75
2021/05/07 10:34:10;;;;;;;6.30;5.70;;;13.20;80.70;;;;;;8286027;28;20449;-74
2021/05/07 10:38:22;;;;;;;5.10;4.70;;;13.70;78.80;;;;;;8273170;28;20486;-76
2021/05/07 10:42:28;;;;;;;8.40;5.80;;;14.10;74.20;;;;;;8310047;28;20435;-74
2021/05/07 10:46:29;;;;;;;6.30;5.70;;;13.80;74.90;;;;;;8293380;28;21117;-74
2021/05/07 10:50:40;;;;;;;6.13;5.53;;;13.60;75.00;;;;;;8288443;28;21281;-74
2021/05/07 10:54:47;;;;;;;5.43;5.03;;;13.40;74.10;;;;;;8295526;28;20573;-74
2021/05/07 10:58:50;;;;;;;5.63;3.70;;;14.20;76.30;;;;;;8305792;28;20438;-75
2021/05/07 11:02:52;;;;;;;4.40;3.47;;;15.50;71.00;;;;;;8297357;28;20450;-75
2021/05/07 11:07:01;;;;;;;5.00;4.50;;;15.60;66.60;;;;;;8283720;28;20812;-75
2021/05/07 11:11:02;;;;;;;7.43;4.20;;;15.90;66.10;;;;;;8298081;28;20511;-74
2021/05/07 11:15:04;;;;;;;5.33;4.60;;;16.30;65.50;;;;;;8298977;28;20470;-74
2021/05/07 11:19:06;;;;;;;6.30;3.40;;;16.30;63.40;;;;;;8302285;28;20597;-75
2021/05/07 11:23:11;;;;;;;10.23;5.17;;;15.50;61.90;;;;;;8295611;28;20474;-74
2021/05/07 11:27:23;;;;;;;4.63;4.23;;;14.60;65.50;;;;;;8301561;28;20920;-75
2021/05/07 11:31:29;;;;;;;3.67;3.37;;;14.90;68.80;;;;;;8299247;28;20597;-76
2021/05/07 11:35:30;;;;;;;3.40;3.20;;;15.20;64.30;;;;;;8295670;28;20469;-73
2021/05/07 11:39:31;;;;;;;6.20;3.97;;;15.90;62.60;;;;;;8312852;28;20990;-74
2021/05/07 11:43:38;;;;;;;3.80;3.50;;;16.00;58.30;;;;;;8312648;28;20194;-76
2021/05/07 11:47:43;;;;;;;4.70;4.27;;;15.50;60.40;;;;;;8313493;28;20442;-75
2021/05/07 11:51:49;;;;;;;3.70;2.70;;;15.60;58.70;;;;;;8310762;28;20461;-75
2021/05/07 11:55:51;;;;;;;4.33;3.93;;;16.10;57.10;;;;;;8309464;28;20492;-74
2021/05/07 11:59:53;;;;;;;3.57;3.30;;;15.80;57.70;;;;;;8267129;28;20448;-76
2021/05/07 12:04:04;;;;;;;3.80;3.10;;;16.00;58.70;;;;;;8325794;28;20459;-77
2021/05/07 12:08:07;;;;;;;3.83;3.60;;;16.10;57.10;;;;;;8303147;28;20478;-75
2021/05/07 12:12:08;;;;;;;4.63;3.00;;;16.60;56.50;;;;;;8304617;28;20446;-73
2021/05/07 12:16:14;;;;;;;4.10;3.90;;;17.00;53.30;;;;;;8281748;28;20504;-74
2021/05/07 12:20:21;;;;;;;5.23;4.80;;;17.30;51.60;;;;;;8263355;28;20468;-74
2021/05/07 12:24:28;;;;;;;4.10;3.20;;;16.90;53.00;;;;;;8279417;28;20450;-74
2021/05/07 12:28:29;;;;;;;4.30;3.90;;;17.20;49.50;;;;;;8295907;28;20449;-72
2021/05/07 12:32:33;;;;;;;3.47;3.17;;;17.40;49.00;;;;;;8290575;28;20480;-73
2021/05/07 12:36:34;;;;;;;2.80;2.70;;;17.70;48.30;;;;;;8273614;28;20228;-72
2021/05/07 12:40:41;;;;;;;5.30;3.57;;;17.90;46.40;;;;;;8289645;28;20554;-73
2021/05/07 12:44:42;;;;;;;3.23;3.03;;;17.60;48.00;;;;;;8297522;28;20309;-73
2021/05/07 12:48:47;;;;;;;4.13;3.73;;;17.70;47.60;;;;;;8299454;28;20447;-72
2021/05/07 12:52:48;;;;;;;3.70;3.40;;;17.90;48.10;;;;;;8293475;28;20208;-72
2021/05/07 12:56:49;;;;;;;3.37;3.00;;;18.40;47.70;;;;;;8287830;28;20473;-73
2021/05/07 13:00:50;;;;;;;3.97;3.60;;;18.30;45.30;;;;;;8299076;28;20342;-74
2021/05/07 13:04:52;;;;;;;2.90;2.70;;;18.10;44.10;;;;;;8291309;28;20456;-73
2021/05/07 13:08:53;;;;;;;4.23;3.20;;;18.20;46.50;;;;;;8292962;28;20446;-73
2021/05/07 13:12:57;;;;;;;8.83;4.80;;;18.60;45.80;;;;;;8270727;28;20476;-73
2021/05/07 13:17:02;;;;;;;5.83;3.47;;;19.00;45.80;;;;;;8285805;28;20222;-73
2021/05/07 13:21:05;;;;;;;4.07;3.60;;;19.40;43.90;;;;;;8287226;28;20469;-73
2021/05/07 13:25:13;;;;;;;7.40;4.30;;;19.60;43.60;;;;;;8287851;28;20499;-73
2021/05/07 13:29:14;;;;;;;4.50;4.10;;;19.20;42.70;;;;;;8272947;28;20541;-72
2021/05/07 13:33:15;;;;;;;4.80;3.67;;;18.30;44.70;;;;;;8292116;28;20508;-72
2021/05/07 13:37:29;;;;;;;4.27;3.90;;;17.50;45.00;;;;;;8312423;28;20227;-73
2021/05/07 13:41:32;;;;;;;6.97;4.23;;;17.00;48.90;;;;;;8293635;28;20463;-72
2021/05/07 13:45:33;;;;;;;4.30;4.00;;;16.80;50.80;;;;;;8286063;28;20438;-73
2021/05/07 13:49:36;;;;;;;5.50;4.93;;;16.50;50.50;;;;;;8293744;28;20496;-72
2021/05/07 13:53:36;;;;;;;4.93;4.63;;;16.30;52.80;;;;;;8280296;28;20451;-74
2021/05/07 13:57:37;;;;;;;5.37;4.87;;;16.00;51.00;;;;;;8295504;28;20471;-72
2021/05/07 14:01:38;;;;;;;6.53;5.90;;;15.90;51.70;;;;;;8297278;28;20751;-73
2021/05/07 14:05:40;;;;;;;11.17;5.50;;;15.80;52.80;;;;;;8293476;28;21017;-73
2021/05/07 14:09:42;;;;;;;5.80;4.53;;;15.80;52.90;;;;;;8293067;28;20926;-73
2021/05/07 14:13:43;;;;;;;6.87;4.70;;;16.50;51.90;;;;;;8279054;28;20502;-74
2021/05/07 14:17:45;;;;;;;4.50;4.10;;;17.20;49.30;;;;;;8288591;28;20484;-73
2021/05/07 14:21:51;;;;;;;5.10;4.70;;;17.20;50.00;;;;;;8297949;28;20688;-72
2021/05/07 14:25:52;;;;;;;5.33;4.83;;;17.10;50.00;;;;;;8296941;28;20449;-72
2021/05/07 14:29:52;;;;;;;5.67;4.90;;;17.10;49.00;;;;;;8290803;28;20448;-72
2021/05/07 14:33:55;;;;;;;5.10;4.50;;;17.10;48.10;;;;;;8304664;28;20195;-73
2021/05/07 14:37:57;;;;;;;5.23;4.73;;;17.10;48.00;;;;;;8286454;28;20224;-72
2021/05/07 14:41:58;;;;;;;7.60;4.90;;;17.20;47.60;;;;;;8297615;28;20443;-73
2021/05/07 14:46:00;;;;;;;6.00;5.50;;;17.70;48.90;;;;;;8297645;28;20497;-73
2021/05/07 14:50:15;;;;;;;4.90;4.50;;;18.10;48.50;;;;;;8293317;28;20195;-73
2021/05/07 14:54:20;;;;;;;4.90;4.40;;;18.70;46.80;;;;;;8271501;28;20480;-72
2021/05/07 14:58:25;;;;;;;5.87;5.27;;;19.10;45.10;;;;;;8291410;28;20457;-73
2021/05/07 15:02:26;;;;;;;6.77;5.10;;;19.20;41.50;;;;;;8294872;28;20491;-73
2021/05/07 15:06:31;;;;;;;6.20;5.70;;;18.80;41.90;;;;;;8299039;28;20940;-72
2021/05/07 15:10:32;;;;;;;6.33;5.40;;;18.80;42.90;;;;;;8274127;28;20533;-73
2021/05/07 15:19:12;;;;;;;6.50;5.57;;;18.80;42.00;;;;;;8205501;28;20318;-74
2021/05/07 15:23:13;;;;;;;4.80;4.40;;;18.40;41.10;;;;;;8263403;28;20457;-72
2021/05/07 15:37:08;;;;;;;4.60;4.30;;;18.50;43.10;;;;;;8297743;28;21026;-73
2021/05/07 15:41:10;;;;;;;4.70;4.30;;;18.70;39.90;;;;;;8286697;28;20974;-73
2021/05/07 15:45:14;;;;;;;4.80;4.40;;;18.30;40.20;;;;;;8298323;28;20184;-73
2021/05/07 15:49:16;;;;;;;5.13;4.70;;;18.20;41.40;;;;;;8282307;28;20449;-72
2021/05/07 15:53:19;;;;;;;5.63;5.00;;;18.40;40.80;;;;;;8295943;28;20500;-72
2021/05/07 15:57:20;;;;;;;5.57;5.17;;;18.50;40.00;;;;;;8310558;28;20453;-72
2021/05/07 16:01:22;;;;;;;6.00;5.50;;;18.40;41.40;;;;;;8299942;28;20516;-73
2021/05/07 16:05:26;;;;;;;7.30;4.67;;;18.20;39.40;;;;;;8290077;28;20179;-73
2021/05/07 16:09:27;;;;;;;6.90;5.90;;;18.10;40.80;;;;;;8310212;28;20438;-73
2021/05/07 16:13:28;;;;;;;6.00;5.40;;;18.00;40.30;;;;;;8290624;28;20445;-72
2021/05/07 16:17:29;;;;;;;6.70;6.10;;;17.60;40.60;;;;;;8294190;28;21095;-72
2021/05/07 16:21:31;;;;;;;6.00;5.60;;;17.20;41.40;;;;;;8317098;28;20908;-73
2021/05/07 16:25:32;;;;;;;6.93;6.43;;;16.70;41.90;;;;;;8320283;28;20195;-73
2021/05/07 16:29:33;;;;;;;5.67;5.27;;;16.50;42.10;;;;;;8300292;28;20447;-73
2021/05/07 16:33:34;;;;;;;7.27;6.50;;;16.30;42.50;;;;;;8303072;28;20231;-74
2021/05/07 16:37:34;;;;;;;7.57;6.87;;;16.10;42.60;;;;;;8338041;28;20235;-74
2021/05/07 16:41:40;;;;;;;5.97;5.50;;;16.00;43.10;;;;;;8329504;28;20176;-74
2021/05/07 16:45:40;;;;;;;6.67;6.03;;;16.30;43.60;;;;;;8351780;28;20595;-73
2021/05/07 16:49:41;;;;;;;6.07;5.57;;;16.60;43.50;;;;;;8337617;28;20476;-74
2021/05/07 16:53:42;;;;;;;7.20;6.60;;;16.60;43.20;;;;;;8346434;28;20226;-73
2021/05/07 16:57:44;;;;;;;6.07;5.67;;;16.40;43.00;;;;;;8320995;28;20942;-75
2021/05/07 17:01:44;;;;;;;5.73;5.33;;;16.30;44.60;;;;;;8315508;28;20450;-74
2021/05/07 17:05:46;;;;;;;7.43;6.13;;;16.30;44.20;;;;;;8331320;28;20446;-75
2021/05/07 17:09:49;;;;;;;6.37;5.90;;;16.20;44.20;;;;;;8316463;28;20255;-73
2021/05/07 17:13:50;;;;;;;6.30;5.83;;;16.10;44.90;;;;;;8335477;28;20516;-75
2021/05/07 17:17:51;;;;;;;6.93;6.40;;;15.70;44.90;;;;;;8321888;28;20474;-73
2021/05/07 17:21:51;;;;;;;8.50;5.87;;;15.60;45.70;;;;;;8321476;28;20199;-73
2021/05/07 17:25:52;;;;;;;12.73;6.97;;;15.70;45.80;;;;;;8321682;28;20214;-74
2021/05/07 17:29:53;;;;;;;7.70;7.00;;;15.80;45.30;;;;;;8318716;28;20192;-73
2021/05/07 17:33:54;;;;;;;7.23;6.50;;;15.70;45.00;;;;;;8318009;28;20192;-74
2021/05/07 17:37:54;;;;;;;8.37;7.57;;;15.70;45.80;;;;;;8330548;28;20236;-74
2021/05/07 17:41:55;;;;;;;10.63;6.80;;;15.70;45.80;;;;;;8321422;28;20207;-74
2021/05/07 17:45:56;;;;;;;7.03;6.53;;;15.60;47.50;;;;;;8344129;28;20741;-74
2021/05/07 17:49:56;;;;;;;8.23;6.77;;;15.50;47.50;;;;;;8331372;28;20206;-76
2021/05/07 17:53:57;;;;;;;8.13;7.33;;;15.20;47.70;;;;;;8333489;28;20198;-73
2021/05/07 17:57:58;;;;;;;8.87;6.93;;;14.90;50.30;;;;;;8345886;28;20229;-74
2021/05/07 18:01:58;;;;;;;8.67;7.47;;;14.70;52.00;;;;;;8327326;28;20185;-74
2021/05/07 18:05:59;;;;;;;8.00;6.87;;;14.50;52.40;;;;;;8299834;28;20194;-72
2021/05/07 18:10:00;;;;;;;12.03;7.10;;;14.40;51.90;;;;;;8298540;28;20209;-72
2021/05/07 18:14:00;;;;;;;8.07;7.37;;;14.40;52.50;;;;;;8314129;28;20667;-72
2021/05/07 18:18:01;;;;;;;10.00;8.47;;;14.50;51.60;;;;;;8294775;28;20576;-72
2021/05/07 18:22:02;;;;;;;7.17;6.57;;;14.50;53.00;;;;;;8295535;28;20213;-72
2021/05/07 18:26:03;;;;;;;8.40;7.57;;;14.50;51.50;;;;;;8294353;28;20185;-72
2021/05/07 18:30:05;;;;;;;9.30;7.20;;;14.50;54.20;;;;;;8297304;28;20445;-71
2021/05/07 18:34:06;;;;;;;8.07;7.27;;;14.40;56.50;;;;;;8309759;28;20698;-72
2021/05/07 18:38:09;;;;;;;8.67;7.87;;;14.20;57.20;;;;;;8298317;28;21312;-72
2021/05/07 18:42:09;;;;;;;8.63;7.10;;;14.00;58.50;;;;;;8298600;28;20193;-72
2021/05/07 18:46:10;;;;;;;7.73;7.10;;;13.70;59.60;;;;;;8292966;28;20479;-72
2021/05/07 18:50:12;;;;;;;8.87;8.13;;;13.50;57.00;;;;;;8295009;28;20187;-72
2021/05/07 18:54:22;;;;;;;9.90;8.27;;;13.30;56.50;;;;;;8309015;28;20180;-71
2021/05/07 18:58:23;;;;;;;10.10;7.13;;;13.10;56.20;;;;;;8297195;28;20493;-73
2021/05/07 19:02:24;;;;;;;7.30;6.70;;;13.00;57.50;;;;;;8316161;28;20521;-73
2021/05/07 19:06:24;;;;;;;7.13;6.23;;;12.90;59.80;;;;;;8293806;28;20231;-72
2021/05/07 19:10:25;;;;;;;6.80;6.20;;;12.70;59.50;;;;;;8296539;28;20188;-72
2021/05/07 19:14:27;;;;;;;11.03;6.77;;;12.50;60.20;;;;;;8311247;28;20188;-72
2021/05/07 19:18:28;;;;;;;8.23;6.53;;;12.30;62.40;;;;;;8299119;28;20311;-72
2021/05/07 19:22:29;;;;;;;9.17;7.17;;;12.10;63.40;;;;;;8316273;28;20451;-73
2021/05/07 19:26:29;;;;;;;9.60;8.27;;;11.80;63.40;;;;;;8311441;28;20192;-71
2021/05/07 19:30:31;;;;;;;12.60;8.90;;;11.60;64.60;;;;;;8296030;28;20199;-72
2021/05/07 19:34:32;;;;;;;15.57;9.97;;;11.50;66.30;;;;;;8306367;28;20245;-73
2021/05/07 19:38:32;;;;;;;15.20;9.60;;;11.30;67.40;;;;;;8307624;28;20469;-71
2021/05/07 19:42:33;;;;;;;10.30;9.10;;;11.20;68.90;;;;;;8306386;28;20188;-72
2021/05/07 19:46:34;;;;;;;15.43;10.53;;;11.00;70.60;;;;;;8307474;28;20184;-72
2021/05/07 19:50:36;;;;;;;21.73;10.10;;;10.80;71.80;;;;;;8309969;28;20198;-73
2021/05/07 19:54:36;;;;;;;11.93;8.90;;;10.60;72.90;;;;;;8312213;28;20234;-72
2021/05/07 19:58:37;;;;;;;13.27;10.40;;;10.50;73.20;;;;;;8317512;28;20453;-72
2021/05/07 20:02:38;;;;;;;13.43;8.77;;;10.30;74.10;;;;;;8302949;28;20236;-72
2021/05/07 20:06:39;;;;;;;14.10;9.13;;;10.20;74.40;;;;;;8305621;28;20200;-72
2021/05/07 20:10:40;;;;;;;15.13;9.60;;;10.10;75.00;;;;;;8309012;28;20184;-72
2021/05/07 20:14:43;;;;;;;14.93;8.50;;;10.00;74.30;;;;;;8321291;28;20521;-72
2021/05/07 20:18:44;;;;;;;11.23;9.20;;;10.00;75.20;;;;;;8305486;28;20203;-72
2021/05/07 20:22:45;;;;;;;10.47;8.57;;;9.90;75.10;;;;;;8321545;28;20568;-72
2021/05/07 20:26:46;;;;;;;10.43;9.23;;;9.80;75.40;;;;;;8323931;28;20214;-72
2021/05/07 20:30:47;;;;;;;8.67;7.87;;;9.70;77.40;;;;;;8320792;28;20225;-71
2021/05/07 20:34:50;;;;;;;9.07;7.90;;;9.60;76.60;;;;;;8298127;28;20440;-71
2021/05/07 20:38:52;;;;;;;9.67;8.00;;;9.50;77.60;;;;;;8319031;28;20186;-72
2021/05/07 20:42:58;;;;;;;10.80;9.10;;;9.40;78.60;;;;;;8306248;28;21058;-72
2021/05/07 20:46:59;;;;;;;9.37;8.20;;;9.20;78.80;;;;;;8318587;28;20467;-72
2021/05/07 20:51:00;;;;;;;11.37;8.27;;;9.10;79.60;;;;;;8323479;28;20442;-72
2021/05/07 20:55:01;;;;;;;10.43;8.10;;;9.00;80.70;;;;;;8324297;28;20230;-71
2021/05/07 20:59:03;;;;;;;9.03;8.13;;;8.80;79.70;;;;;;8306134;28;20181;-72
2021/05/07 21:03:08;;;;;;;12.30;7.83;;;8.80;78.80;;;;;;8322358;28;20272;-72
2021/05/07 21:07:08;;;;;;;8.30;6.60;;;8.70;78.90;;;;;;8314864;28;20536;-71